Time;durP1;ratioP1;P1;durP2;ratioP2;P2;SDS_P1;SDS_P2;PMS_P1;PMS_P2;Temp;Humidity;BMP_temperature;BMP_pressure;BME280_temperature;BME280_humidity;BME280_pressure;Samples;Min_cycle;Max_cycle;Signal;HPM_P1;HPM_P2
2022/01/12 00:02:13;;;;;;;0.60;0.60;;;;;;;;;;5031107;28;20169;-63
2022/01/12 00:04:39;;;;;;;0.60;0.60;;;;;;;;;;5031241;28;20295;-63
2022/01/12 00:07:05;;;;;;;0.70;0.70;;;;;;;;;;5031326;28;20430;-63
2022/01/12 00:09:31;;;;;;;0.63;0.63;;;;;;;;;;5031327;28;20196;-63
2022/01/12 00:11:59;;;;;;;0.70;0.70;;;;;;;;;;5031248;28;20412;-63
2022/01/12 00:14:27;;;;;;;0.70;0.70;;;;;;;;;;5030913;28;20513;-63
2022/01/12 00:16:58;;;;;;;0.60;0.60;;;;;;;;;;5030977;28;20169;-63
2022/01/12 00:19:25;;;;;;;0.70;0.70;;;;;;;;;;5032249;28;20220;-62
2022/01/12 00:21:51;;;;;;;0.70;0.70;;;;;;;;;;5031385;28;20180;-63
2022/01/12 00:24:17;;;;;;;0.70;0.70;;;;;;;;;;5030864;28;20214;-63
2022/01/12 00:33:08;;;;;;;0.70;0.70;;;;;;;;;;5031060;28;20205;-63
2022/01/12 00:34:58;;;;;;;0.60;0.60;;;;;;;;;;5031039;28;20245;-63
2022/01/12 00:37:24;;;;;;;0.55;0.55;;;;;;;;;;5030992;28;20238;-63
2022/01/12 00:39:50;;;;;;;0.60;0.60;;;;;;;;;;5031179;28;20200;-63
2022/01/12 00:42:16;;;;;;;0.60;0.60;;;;;;;;;;5031081;28;20467;-62
2022/01/12 00:44:45;;;;;;;0.70;0.70;;;;;;;;;;5030980;28;20513;-61
2022/01/12 00:47:12;;;;;;;0.70;0.70;;;;;;;;;;5030629;28;20498;-63
2022/01/12 00:49:38;;;;;;;0.70;0.70;;;;;;;;;;5030899;28;20204;-63
2022/01/12 00:52:04;;;;;;;0.70;0.70;;;;;;;;;;5031174;28;20261;-62
2022/01/12 00:54:30;;;;;;;0.60;0.60;;;;;;;;;;5030520;28;20497;-63
2022/01/12 00:56:56;;;;;;;0.60;0.60;;;;;;;;;;5031566;28;20173;-61
2022/01/12 00:59:22;;;;;;;0.60;0.60;;;;;;;;;;5030908;28;20878;-63
2022/01/12 01:01:48;;;;;;;0.70;0.70;;;;;;;;;;5030986;28;20426;-63
2022/01/12 01:04:14;;;;;;;0.60;0.60;;;;;;;;;;5030034;28;20200;-63
2022/01/12 01:06:40;;;;;;;0.70;0.70;;;;;;;;;;5027191;28;20481;-63
2022/01/12 01:09:06;;;;;;;0.70;0.70;;;;;;;;;;5030704;28;20276;-63
2022/01/12 01:11:33;;;;;;;0.70;0.70;;;;;;;;;;5030925;28;20180;-63
2022/01/12 01:14:02;;;;;;;0.60;0.60;;;;;;;;;;5030463;28;20212;-63
2022/01/12 01:27:24;;;;;;;0.70;0.70;;;;;;;;;;5032512;28;20183;-63
2022/01/12 01:29:52;;;;;;;0.57;0.57;;;;;;;;;;5034242;28;20209;-63
2022/01/12 01:32:18;;;;;;;0.60;0.60;;;;;;;;;;5033975;28;20454;-63
2022/01/12 01:34:47;;;;;;;0.70;0.70;;;;;;;;;;5034147;28;20263;-63
2022/01/12 01:37:13;;;;;;;0.70;0.70;;;;;;;;;;5034361;28;20172;-62
2022/01/12 01:39:40;;;;;;;0.70;0.70;;;;;;;;;;5034128;28;20295;-63
2022/01/12 01:42:16;;;;;;;0.70;0.70;;;;;;;;;;5033728;28;20268;-63
2022/01/12 01:55:28;;;;;;;0.60;0.60;;;;;;;;;;5034147;28;20219;-63
2022/01/12 01:57:54;;;;;;;0.60;0.60;;;;;;;;;;5033737;28;20197;-63
2022/01/12 02:00:23;;;;;;;0.70;0.70;;;;;;;;;;5033570;28;20186;-62
2022/01/12 02:02:49;;;;;;;0.70;0.70;;;;;;;;;;5033224;28;20238;-62
2022/01/12 02:05:15;;;;;;;0.50;0.50;;;;;;;;;;5033455;28;20913;-63
2022/01/12 02:07:41;;;;;;;0.70;0.70;;;;;;;;;;5033212;28;20182;-63
2022/01/12 02:10:07;;;;;;;0.70;0.70;;;;;;;;;;5015881;28;20218;-63
2022/01/12 02:12:33;;;;;;;0.60;0.60;;;;;;;;;;5032862;28;20203;-63
2022/01/12 02:15:02;;;;;;;0.70;0.70;;;;;;;;;;5033245;28;20181;-63
2022/01/12 02:17:38;;;;;;;0.70;0.70;;;;;;;;;;5033458;28;20918;-61
2022/01/12 02:54:39;;;;;;;0.60;0.60;;;;;;;;;;4988849;28;20247;-60
2022/01/12 02:57:05;;;;;;;0.80;0.80;;;;;;;;;;5032762;28;20180;-63
2022/01/12 02:59:31;;;;;;;0.70;0.70;;;;;;;;;;5032412;28;20447;-63
2022/01/12 03:04:38;;;;;;;0.80;0.80;;;;;;;;;;5032213;28;20463;-63
2022/01/12 03:07:10;;;;;;;0.70;0.70;;;;;;;;;;5032088;28;20263;-61
2022/01/12 03:09:36;;;;;;;0.60;0.60;;;;;;;;;;5032205;28;20200;-61
2022/01/12 03:12:02;;;;;;;0.60;0.60;;;;;;;;;;5032557;28;20169;-60
2022/01/12 03:14:28;;;;;;;0.70;0.70;;;;;;;;;;5031821;28;20188;-62
2022/01/12 03:16:54;;;;;;;0.70;0.70;;;;;;;;;;5031884;28;20181;-62
2022/01/12 03:19:20;;;;;;;0.70;0.70;;;;;;;;;;5031943;28;20542;-61
2022/01/12 03:21:46;;;;;;;0.70;0.70;;;;;;;;;;5031485;28;20208;-62
2022/01/12 03:24:12;;;;;;;0.70;0.70;;;;;;;;;;5031666;28;20459;-62
2022/01/12 03:26:38;;;;;;;0.60;0.60;;;;;;;;;;5032206;28;20556;-63
2022/01/12 03:29:04;;;;;;;0.60;0.60;;;;;;;;;;5031658;28;20530;-61
2022/01/12 03:31:33;;;;;;;0.60;0.60;;;;;;;;;;5031926;28;20192;-63
2022/01/12 03:36:41;;;;;;;0.60;0.60;;;;;;;;;;5031979;28;20185;-63
2022/01/12 03:39:10;;;;;;;0.70;0.70;;;;;;;;;;5031776;28;20212;-62
2022/01/12 03:41:36;;;;;;;0.60;0.60;;;;;;;;;;5032096;28;20177;-63
2022/01/12 03:44:04;;;;;;;0.60;0.60;;;;;;;;;;5031428;28;20177;-63
2022/01/12 03:46:36;;;;;;;0.70;0.70;;;;;;;;;;5031306;28;20187;-62
2022/01/12 03:49:02;;;;;;;0.70;0.70;;;;;;;;;;5031174;28;20207;-63
2022/01/12 03:51:28;;;;;;;0.60;0.60;;;;;;;;;;5031721;28;20192;-63
2022/01/12 03:53:54;;;;;;;0.67;0.67;;;;;;;;;;5031162;28;20177;-63
2022/01/12 03:56:20;;;;;;;0.60;0.60;;;;;;;;;;5013386;28;20511;-63
2022/01/12 03:58:46;;;;;;;0.70;0.70;;;;;;;;;;5031316;28;20547;-63
2022/01/12 04:01:12;;;;;;;0.60;0.60;;;;;;;;;;5031681;28;20672;-63
2022/01/12 04:03:42;;;;;;;0.70;0.70;;;;;;;;;;5031016;28;20938;-62
2022/01/12 04:08:53;;;;;;;0.60;0.60;;;;;;;;;;5031134;28;20215;-63
2022/01/12 04:11:19;;;;;;;0.70;0.70;;;;;;;;;;5013515;28;20245;-63
2022/01/12 04:13:48;;;;;;;0.60;0.60;;;;;;;;;;5031031;28;20184;-63
2022/01/12 04:16:14;;;;;;;0.80;0.80;;;;;;;;;;5031031;28;20420;-63
2022/01/12 04:18:40;;;;;;;0.80;0.80;;;;;;;;;;5030744;28;20251;-63
2022/01/12 04:21:08;;;;;;;0.60;0.60;;;;;;;;;;5031487;28;20716;-63
2022/01/12 04:23:35;;;;;;;0.70;0.70;;;;;;;;;;5030699;28;20251;-61
2022/01/12 04:26:02;;;;;;;0.80;0.80;;;;;;;;;;5031257;28;20207;-63
2022/01/12 04:28:29;;;;;;;0.65;0.65;;;;;;;;;;5031249;28;20563;-63
2022/01/12 04:30:56;;;;;;;0.70;0.70;;;;;;;;;;5031245;28;20195;-63
2022/01/12 04:33:22;;;;;;;0.70;0.70;;;;;;;;;;5031125;28;20173;-63
2022/01/12 04:35:52;;;;;;;0.73;0.73;;;;;;;;;;5031333;28;20543;-63
2022/01/12 04:38:19;;;;;;;0.60;0.60;;;;;;;;;;5031277;28;20196;-63
2022/01/12 04:40:45;;;;;;;0.70;0.70;;;;;;;;;;5030604;28;20211;-63
2022/01/12 04:43:11;;;;;;;0.70;0.70;;;;;;;;;;5030701;28;20554;-63
2022/01/12 04:48:34;;;;;;;0.70;0.70;;;;;;;;;;5031027;28;20299;-63
2022/01/12 04:51:00;;;;;;;0.60;0.60;;;;;;;;;;5031447;28;20177;-63
2022/01/12 04:53:27;;;;;;;0.70;0.70;;;;;;;;;;5030457;28;20180;-63
2022/01/12 04:55:53;;;;;;;0.60;0.60;;;;;;;;;;5030605;28;20472;-63
2022/01/12 04:58:20;;;;;;;0.70;0.70;;;;;;;;;;5030301;28;20280;-63
2022/01/12 05:00:46;;;;;;;0.60;0.60;;;;;;;;;;5030368;28;20198;-63
2022/01/12 05:13:57;;;;;;;0.70;0.70;;;;;;;;;;5029445;28;20187;-63
2022/01/12 05:16:23;;;;;;;0.65;0.65;;;;;;;;;;5015867;28;20176;-62
2022/01/12 05:18:50;;;;;;;0.70;0.70;;;;;;;;;;5033926;28;20307;-61
2022/01/12 05:21:17;;;;;;;0.70;0.70;;;;;;;;;;5034562;28;20250;-61
2022/01/12 05:23:44;;;;;;;0.70;0.70;;;;;;;;;;5016227;28;20184;-62
2022/01/12 05:26:10;;;;;;;0.70;0.70;;;;;;;;;;5034592;28;20220;-62
2022/01/12 05:28:38;;;;;;;0.65;0.65;;;;;;;;;;5034372;28;20197;-62
2022/01/12 05:31:04;;;;;;;0.70;0.70;;;;;;;;;;5033993;28;20723;-62
2022/01/12 05:33:30;;;;;;;0.70;0.70;;;;;;;;;;5033658;28;20203;-62
2022/01/12 05:35:57;;;;;;;0.60;0.60;;;;;;;;;;5034096;28;20350;-62
2022/01/12 05:38:24;;;;;;;0.65;0.65;;;;;;;;;;5034009;28;20587;-62
2022/01/12 05:40:57;;;;;;;0.70;0.70;;;;;;;;;;5033417;28;20185;-62
2022/01/12 05:43:26;;;;;;;0.60;0.60;;;;;;;;;;5016105;28;20177;-62
2022/01/12 05:45:53;;;;;;;0.60;0.60;;;;;;;;;;5033294;28;20204;-62
2022/01/12 05:50:51;;;;;;;0.57;0.57;;;;;;;;;;5038171;28;20271;-62
2022/01/12 05:53:17;;;;;;;0.80;0.80;;;;;;;;;;5034568;28;20180;-62
2022/01/12 05:55:43;;;;;;;0.70;0.70;;;;;;;;;;5033961;28;20180;-60
2022/01/12 05:58:11;;;;;;;0.70;0.70;;;;;;;;;;5033651;28;20230;-62
2022/01/12 06:00:37;;;;;;;0.70;0.70;;;;;;;;;;5033753;28;20169;-61
2022/01/12 06:03:03;;;;;;;0.60;0.60;;;;;;;;;;5032225;28;20238;-62
2022/01/12 06:05:29;;;;;;;0.60;0.60;;;;;;;;;;5033176;28;20551;-62
2022/01/12 06:07:55;;;;;;;0.70;0.70;;;;;;;;;;5033486;28;20295;-62
2022/01/12 06:10:23;;;;;;;0.70;0.70;;;;;;;;;;5033448;28;20181;-62
2022/01/12 06:12:49;;;;;;;0.80;0.80;;;;;;;;;;5014850;28;20173;-62
2022/01/12 06:15:15;;;;;;;0.60;0.60;;;;;;;;;;5033156;28;20180;-61
2022/01/12 06:17:41;;;;;;;0.70;0.70;;;;;;;;;;5033023;28;20200;-62
2022/01/12 06:20:08;;;;;;;0.70;0.70;;;;;;;;;;5062547;22;20505;-65
2022/01/12 06:22:34;;;;;;;0.70;0.70;;;;;;;;;;5050991;28;20443;-65
2022/01/12 06:25:02;;;;;;;0.60;0.60;;;;;;;;;;5052925;28;20345;-65
2022/01/12 06:27:30;;;;;;;0.60;0.60;;;;;;;;;;5053424;28;20179;-65
2022/01/12 06:32:41;;;;;;;0.70;0.70;;;;;;;;;;5054040;28;20198;-64
2022/01/12 06:35:07;;;;;;;0.60;0.60;;;;;;;;;;5053197;28;20178;-65
2022/01/12 06:37:33;;;;;;;0.70;0.70;;;;;;;;;;5052532;28;20721;-65
2022/01/12 06:39:59;;;;;;;0.60;0.60;;;;;;;;;;5052104;28;20196;-65
2022/01/12 06:42:26;;;;;;;0.60;0.60;;;;;;;;;;5053142;28;20450;-67
2022/01/12 06:44:52;;;;;;;0.70;0.70;;;;;;;;;;5053181;28;20454;-66
2022/01/12 06:47:19;;;;;;;0.60;0.60;;;;;;;;;;5053028;28;20172;-66
2022/01/12 06:49:45;;;;;;;0.60;0.60;;;;;;;;;;5034938;28;20241;-66
2022/01/12 06:52:11;;;;;;;0.70;0.70;;;;;;;;;;5052871;28;20179;-66
2022/01/12 06:54:37;;;;;;;0.70;0.70;;;;;;;;;;5034756;28;20422;-64
2022/01/12 06:57:03;;;;;;;0.70;0.70;;;;;;;;;;5052794;28;20421;-66
2022/01/12 06:59:29;;;;;;;0.63;0.63;;;;;;;;;;5052700;28;20203;-66
2022/01/12 07:01:55;;;;;;;0.70;0.70;;;;;;;;;;5052752;28;20638;-66
2022/01/12 07:04:21;;;;;;;0.60;0.60;;;;;;;;;;5052421;28;20462;-66
2022/01/12 07:06:47;;;;;;;0.60;0.60;;;;;;;;;;5052751;28;20309;-66
2022/01/12 07:09:13;;;;;;;0.60;0.60;;;;;;;;;;5040901;28;20224;-66
2022/01/12 07:11:39;;;;;;;0.70;0.70;;;;;;;;;;5037000;28;20701;-66
2022/01/12 07:14:05;;;;;;;0.70;0.70;;;;;;;;;;5014084;28;20404;-66
2022/01/12 07:16:31;;;;;;;0.60;0.60;;;;;;;;;;5043964;28;20183;-66
2022/01/12 07:18:59;;;;;;;0.70;0.70;;;;;;;;;;5052175;28;20208;-66
2022/01/12 07:21:25;;;;;;;0.70;0.70;;;;;;;;;;5033718;28;20422;-66
2022/01/12 07:23:54;;;;;;;0.65;0.65;;;;;;;;;;5013288;28;20187;-66
2022/01/12 07:26:21;;;;;;;0.60;0.60;;;;;;;;;;5031555;28;20294;-66
2022/01/12 07:28:46;;;;;;;0.70;0.70;;;;;;;;;;5013983;28;20321;-66
2022/01/12 07:31:12;;;;;;;0.70;0.70;;;;;;;;;;5032164;28;20216;-66
2022/01/12 07:33:38;;;;;;;0.80;0.80;;;;;;;;;;5031569;28;20430;-65
2022/01/12 07:36:04;;;;;;;0.60;0.60;;;;;;;;;;5032157;28;20419;-65
2022/01/12 07:38:30;;;;;;;0.70;0.70;;;;;;;;;;5036305;28;20450;-65
2022/01/12 07:40:56;;;;;;;0.70;0.70;;;;;;;;;;5016294;28;20602;-65
2022/01/12 07:43:22;;;;;;;0.60;0.60;;;;;;;;;;5029268;28;20425;-68
2022/01/12 07:45:48;;;;;;;0.70;0.70;;;;;;;;;;5031490;28;20466;-65
2022/01/12 07:48:14;;;;;;;0.80;0.80;;;;;;;;;;5032190;28;20418;-65
2022/01/12 07:50:41;;;;;;;0.70;0.70;;;;;;;;;;5013914;28;20187;-66
2022/01/12 07:53:06;;;;;;;0.70;0.70;;;;;;;;;;5031301;28;20195;-66
2022/01/12 07:55:32;;;;;;;0.60;0.60;;;;;;;;;;5031664;28;20185;-66
2022/01/12 07:57:59;;;;;;;0.70;0.70;;;;;;;;;;5031785;28;20408;-66
2022/01/12 08:00:26;;;;;;;0.60;0.60;;;;;;;;;;5030733;28;20278;-66
2022/01/12 08:02:52;;;;;;;0.60;0.60;;;;;;;;;;5012603;28;20202;-66
2022/01/12 08:05:19;;;;;;;0.70;0.70;;;;;;;;;;5030479;28;20234;-66
2022/01/12 08:07:46;;;;;;;0.70;0.70;;;;;;;;;;5031105;28;20187;-66
2022/01/12 08:10:12;;;;;;;0.70;0.70;;;;;;;;;;5030640;28;20218;-65
2022/01/12 08:12:38;;;;;;;0.70;0.70;;;;;;;;;;5012757;28;20173;-66
2022/01/12 08:15:05;;;;;;;0.70;0.70;;;;;;;;;;5012996;28;20176;-66
2022/01/12 08:17:31;;;;;;;0.60;0.60;;;;;;;;;;5031458;28;20215;-66
2022/01/12 08:19:58;;;;;;;0.60;0.60;;;;;;;;;;5031322;28;20207;-66
2022/01/12 08:22:24;;;;;;;0.70;0.70;;;;;;;;;;5031657;28;20200;-66
2022/01/12 08:24:50;;;;;;;0.60;0.60;;;;;;;;;;5031352;28;20240;-66
2022/01/12 08:27:16;;;;;;;0.60;0.60;;;;;;;;;;5030764;28;20529;-66
2022/01/12 08:29:42;;;;;;;0.60;0.60;;;;;;;;;;5013628;28;20564;-64
2022/01/12 08:32:08;;;;;;;0.60;0.60;;;;;;;;;;5031434;28;20487;-64
2022/01/12 08:34:34;;;;;;;0.60;0.60;;;;;;;;;;5013477;28;20176;-64
2022/01/12 08:37:06;;;;;;;0.50;0.50;;;;;;;;;;5012840;28;20196;-66
2022/01/12 08:39:32;;;;;;;0.70;0.70;;;;;;;;;;5013450;28;20435;-65
2022/01/12 08:41:58;;;;;;;0.60;0.60;;;;;;;;;;5031104;28;20177;-65
2022/01/12 08:44:24;;;;;;;0.60;0.60;;;;;;;;;;5031297;28;20230;-65
2022/01/12 08:46:50;;;;;;;0.60;0.60;;;;;;;;;;5031497;28;20944;-65
2022/01/12 08:49:16;;;;;;;0.80;0.80;;;;;;;;;;5031425;28;20280;-65
2022/01/12 08:51:42;;;;;;;0.60;0.60;;;;;;;;;;5031192;28;20403;-65
2022/01/12 08:54:08;;;;;;;0.70;0.70;;;;;;;;;;5013327;28;20410;-64
2022/01/12 08:56:36;;;;;;;0.60;0.60;;;;;;;;;;5031039;28;20818;-64
2022/01/12 08:59:02;;;;;;;0.70;0.70;;;;;;;;;;5030447;28;20423;-65
2022/01/12 09:01:28;;;;;;;0.60;0.60;;;;;;;;;;5013275;28;20200;-64
2022/01/12 09:03:54;;;;;;;0.70;0.70;;;;;;;;;;5030632;28;20671;-64
2022/01/12 09:06:20;;;;;;;0.70;0.70;;;;;;;;;;5032515;28;20910;-64
2022/01/12 09:08:46;;;;;;;0.70;0.70;;;;;;;;;;5030453;28;20208;-64
2022/01/12 09:11:14;;;;;;;0.60;0.60;;;;;;;;;;5030429;28;20173;-64
2022/01/12 09:13:40;;;;;;;0.60;0.60;;;;;;;;;;5030987;28;20676;-64
2022/01/12 09:16:08;;;;;;;0.60;0.60;;;;;;;;;;5030695;28;20172;-64
2022/01/12 09:18:39;;;;;;;0.70;0.70;;;;;;;;;;5030947;28;20423;-64
2022/01/12 09:21:05;;;;;;;0.60;0.60;;;;;;;;;;5030680;28;20177;-64
2022/01/12 09:23:31;;;;;;;0.60;0.60;;;;;;;;;;5029887;28;20192;-64
2022/01/12 09:25:57;;;;;;;0.70;0.70;;;;;;;;;;5030721;28;20204;-64
2022/01/12 09:28:23;;;;;;;0.60;0.60;;;;;;;;;;5030275;28;20682;-65
2022/01/12 09:30:51;;;;;;;0.60;0.60;;;;;;;;;;5030810;28;20701;-64
2022/01/12 09:33:17;;;;;;;0.60;0.60;;;;;;;;;;5030235;28;20934;-65
2022/01/12 09:35:45;;;;;;;0.70;0.70;;;;;;;;;;5030872;28;20267;-64
2022/01/12 09:38:11;;;;;;;0.60;0.60;;;;;;;;;;5030720;28;21019;-65
2022/01/12 09:40:39;;;;;;;0.60;0.60;;;;;;;;;;5030407;28;20184;-64
2022/01/12 09:43:05;;;;;;;0.60;0.60;;;;;;;;;;5012614;28;20231;-65
2022/01/12 09:45:32;;;;;;;0.70;0.70;;;;;;;;;;5030396;28;20231;-65
2022/01/12 09:47:58;;;;;;;0.60;0.60;;;;;;;;;;5032503;28;20812;-65
2022/01/12 09:50:25;;;;;;;0.60;0.60;;;;;;;;;;5034235;28;20232;-65
2022/01/12 09:52:51;;;;;;;0.60;0.60;;;;;;;;;;5033959;28;20439;-65
2022/01/12 09:55:17;;;;;;;0.60;0.60;;;;;;;;;;5034079;28;20184;-65
2022/01/12 09:57:43;;;;;;;0.60;0.60;;;;;;;;;;5034454;28;20173;-65
2022/01/12 10:00:10;;;;;;;0.70;0.70;;;;;;;;;;5034223;28;20197;-65
2022/01/12 10:02:36;;;;;;;0.70;0.70;;;;;;;;;;5033951;28;20211;-65
2022/01/12 10:05:07;;;;;;;0.65;0.65;;;;;;;;;;5016240;28;20197;-66
2022/01/12 10:07:33;;;;;;;0.60;0.60;;;;;;;;;;5033971;28;20169;-66
2022/01/12 10:10:01;;;;;;;0.55;0.55;;;;;;;;;;5033989;28;20192;-66
2022/01/12 10:12:27;;;;;;;0.70;0.70;;;;;;;;;;5033960;28;20264;-66
2022/01/12 10:14:55;;;;;;;0.70;0.70;;;;;;;;;;5034132;28;20180;-66
2022/01/12 10:17:34;;;;;;;0.63;0.63;;;;;;;;;;5033889;28;20177;-66
2022/01/12 10:20:07;;;;;;;0.60;0.60;;;;;;;;;;5033698;28;20212;-66
2022/01/12 10:22:34;;;;;;;0.60;0.60;;;;;;;;;;5015911;28;20548;-66
2022/01/12 10:25:01;;;;;;;0.70;0.70;;;;;;;;;;5033979;28;20274;-66
2022/01/12 10:27:27;;;;;;;0.60;0.60;;;;;;;;;;5033943;28;20168;-66
2022/01/12 10:29:57;;;;;;;0.60;0.60;;;;;;;;;;5033948;28;20651;-66
2022/01/12 10:32:23;;;;;;;0.60;0.60;;;;;;;;;;5033550;28;20395;-66
2022/01/12 10:34:50;;;;;;;0.60;0.60;;;;;;;;;;5033633;28;20902;-66
2022/01/12 10:37:26;;;;;;;0.60;0.60;;;;;;;;;;5033562;28;20215;-66
2022/01/12 10:39:52;;;;;;;0.60;0.60;;;;;;;;;;5033587;28;20184;-66
2022/01/12 10:42:20;;;;;;;0.60;0.60;;;;;;;;;;5033707;28;20177;-66
2022/01/12 10:44:48;;;;;;;0.60;0.60;;;;;;;;;;5033348;28;20208;-66
2022/01/12 10:47:18;;;;;;;0.60;0.60;;;;;;;;;;5033155;28;20188;-66
2022/01/12 10:49:58;;;;;;;0.60;0.60;;;;;;;;;;5033371;28;20181;-66
2022/01/12 10:52:27;;;;;;;0.60;0.60;;;;;;;;;;5033225;28;20192;-66
2022/01/12 10:54:54;;;;;;;0.60;0.60;;;;;;;;;;5033369;28;20173;-66
2022/01/12 10:57:34;;;;;;;0.70;0.70;;;;;;;;;;5033154;28;20283;-66
2022/01/12 11:00:01;;;;;;;0.60;0.60;;;;;;;;;;5013971;28;20216;-66
2022/01/12 11:02:28;;;;;;;0.60;0.60;;;;;;;;;;5032603;28;20223;-66
2022/01/12 11:04:55;;;;;;;0.70;0.70;;;;;;;;;;5033208;28;20208;-66
2022/01/12 11:07:21;;;;;;;0.60;0.60;;;;;;;;;;5032898;28;20180;-66
2022/01/12 11:09:47;;;;;;;0.60;0.60;;;;;;;;;;5015253;28;20558;-66
2022/01/12 11:12:13;;;;;;;0.80;0.80;;;;;;;;;;5032990;28;20408;-66
2022/01/12 11:14:38;;;;;;;0.60;0.60;;;;;;;;;;5032662;28;20199;-66
2022/01/12 11:17:04;;;;;;;0.60;0.60;;;;;;;;;;5032653;28;20443;-66
2022/01/12 11:19:31;;;;;;;0.50;0.50;;;;;;;;;;5032504;28;20451;-66
2022/01/12 11:22:02;;;;;;;0.60;0.60;;;;;;;;;;5032800;28;20411;-66
2022/01/12 11:24:28;;;;;;;0.60;0.60;;;;;;;;;;5014898;28;20277;-66
2022/01/12 11:26:55;;;;;;;0.60;0.60;;;;;;;;;;5032614;28;20239;-66
2022/01/12 11:29:27;;;;;;;0.60;0.60;;;;;;;;;;5030544;28;20205;-66
2022/01/12 11:32:04;;;;;;;0.50;0.50;;;;;;;;;;5032660;28;20564;-66
2022/01/12 11:34:30;;;;;;;0.50;0.50;;;;;;;;;;5032104;28;20231;-66
2022/01/12 11:36:56;;;;;;;0.60;0.60;;;;;;;;;;5031943;28;20188;-67
2022/01/12 11:39:23;;;;;;;0.50;0.50;;;;;;;;;;5032143;28;20462;-64
2022/01/12 11:41:49;;;;;;;0.60;0.60;;;;;;;;;;5032533;28;20982;-64
2022/01/12 11:44:22;;;;;;;0.55;0.55;;;;;;;;;;5032797;28;20180;-65
2022/01/12 11:46:52;;;;;;;0.50;0.50;;;;;;;;;;5031226;28;20234;-65
2022/01/12 11:49:31;;;;;;;0.50;0.50;;;;;;;;;;5031559;28;20553;-65
2022/01/12 11:51:58;;;;;;;0.50;0.50;;;;;;;;;;5032075;28;20268;-65
2022/01/12 11:54:30;;;;;;;0.40;0.40;;;;;;;;;;5032028;28;20173;-65
2022/01/12 11:56:57;;;;;;;0.50;0.50;;;;;;;;;;5030559;28;20177;-65
2022/01/12 11:59:24;;;;;;;0.50;0.50;;;;;;;;;;5031543;28;20268;-65
2022/01/12 12:01:51;;;;;;;0.40;0.40;;;;;;;;;;5030928;28;20185;-65
2022/01/12 12:04:22;;;;;;;0.40;0.40;;;;;;;;;;5031562;28;20408;-65
2022/01/12 12:06:49;;;;;;;0.40;0.40;;;;;;;;;;5031797;28;20179;-65
2022/01/12 12:09:18;;;;;;;0.50;0.50;;;;;;;;;;5031126;28;20240;-65
2022/01/12 12:11:51;;;;;;;0.50;0.50;;;;;;;;;;5031267;28;20592;-65
2022/01/12 12:14:18;;;;;;;0.50;0.50;;;;;;;;;;5030912;28;20195;-65
2022/01/12 12:16:45;;;;;;;0.40;0.40;;;;;;;;;;5031734;28;20173;-65
2022/01/12 12:19:11;;;;;;;0.50;0.50;;;;;;;;;;5055789;22;20200;-62
2022/01/12 12:21:40;;;;;;;0.50;0.50;;;;;;;;;;5069457;28;20708;-62
2022/01/12 12:24:07;;;;;;;0.50;0.50;;;;;;;;;;5051619;28;20178;-62
2022/01/12 12:26:33;;;;;;;0.50;0.50;;;;;;;;;;5069372;28;20171;-62
2022/01/12 12:28:59;;;;;;;0.40;0.40;;;;;;;;;;5069603;28;20202;-62
2022/01/12 12:31:26;;;;;;;0.50;0.50;;;;;;;;;;5050601;28;20203;-61
2022/01/12 12:34:03;;;;;;;0.50;0.50;;;;;;;;;;5032526;28;20407;-62
2022/01/12 12:36:29;;;;;;;0.50;0.50;;;;;;;;;;5050641;28;20172;-62
2022/01/12 12:39:04;;;;;;;0.40;0.40;;;;;;;;;;5050992;28;20524;-63
2022/01/12 12:41:43;;;;;;;0.40;0.40;;;;;;;;;;5050963;28;20414;-62
2022/01/12 12:44:26;;;;;;;0.50;0.50;;;;;;;;;;5050682;28;20202;-62
2022/01/12 12:46:52;;;;;;;0.50;0.50;;;;;;;;;;5050833;28;20575;-62
2022/01/12 12:49:18;;;;;;;0.50;0.50;;;;;;;;;;5050841;28;20195;-62
2022/01/12 12:51:45;;;;;;;0.40;0.40;;;;;;;;;;5050944;28;20172;-62
2022/01/12 12:54:12;;;;;;;0.50;0.50;;;;;;;;;;5050636;28;20403;-62
2022/01/12 12:56:48;;;;;;;0.50;0.50;;;;;;;;;;5032813;28;20183;-62
2022/01/12 12:59:14;;;;;;;0.50;0.50;;;;;;;;;;5050920;28;20187;-62
2022/01/12 13:01:40;;;;;;;0.40;0.40;;;;;;;;;;5050918;28;20179;-63
2022/01/12 13:04:06;;;;;;;0.40;0.40;;;;;;;;;;5050611;28;20172;-63
2022/01/12 13:06:34;;;;;;;0.50;0.50;;;;;;;;;;5050860;28;20437;-62
2022/01/12 13:09:07;;;;;;;0.50;0.50;;;;;;;;;;5051081;28;21028;-62
2022/01/12 13:11:37;;;;;;;0.50;0.50;;;;;;;;;;5050959;28;20191;-62
2022/01/12 13:14:08;;;;;;;0.40;0.40;;;;;;;;;;5050834;28;20228;-62
2022/01/12 13:16:34;;;;;;;0.45;0.45;;;;;;;;;;5050838;28;20164;-62
2022/01/12 13:19:19;;;;;;;0.50;0.50;;;;;;;;;;5050535;28;20164;-62
2022/01/12 13:21:45;;;;;;;0.50;0.50;;;;;;;;;;5050760;28;20195;-62
2022/01/12 13:24:11;;;;;;;0.50;0.50;;;;;;;;;;5054223;28;20728;-62
2022/01/12 13:26:37;;;;;;;0.50;0.50;;;;;;;;;;5054506;28;20207;-62
2022/01/12 13:29:05;;;;;;;0.60;0.60;;;;;;;;;;5054461;28;20406;-62
2022/01/12 13:31:31;;;;;;;0.50;0.50;;;;;;;;;;5054558;28;20249;-62
2022/01/12 13:33:58;;;;;;;0.50;0.50;;;;;;;;;;5054055;28;20214;-63
2022/01/12 13:36:25;;;;;;;0.50;0.50;;;;;;;;;;5054262;28;20451;-62
2022/01/12 13:38:57;;;;;;;0.50;0.50;;;;;;;;;;5054418;28;20233;-62
2022/01/12 13:41:28;;;;;;;0.60;0.60;;;;;;;;;;5054331;28;20547;-62
2022/01/12 13:43:57;;;;;;;0.50;0.50;;;;;;;;;;5054135;28;20246;-62
2022/01/12 13:46:29;;;;;;;0.50;0.50;;;;;;;;;;5054119;28;20576;-62
2022/01/12 13:51:40;;;;;;;0.50;0.50;;;;;;;;;;5054156;28;20168;-60
2022/01/12 13:54:08;;;;;;;0.50;0.50;;;;;;;;;;5053807;28;20179;-62
2022/01/12 13:56:39;;;;;;;0.60;0.60;;;;;;;;;;5053997;28;20178;-62
2022/01/12 13:59:05;;;;;;;0.50;0.50;;;;;;;;;;5053714;28;20171;-62
2022/01/12 14:01:35;;;;;;;0.50;0.50;;;;;;;;;;5035864;28;20175;-62
2022/01/12 14:04:37;;;;;;;0.50;0.50;;;;;;;;;;5053661;28;20178;-62
2022/01/12 14:06:59;;;;;;;0.50;0.50;;;;;;;;;;5050458;28;20354;-62
2022/01/12 14:09:31;;;;;;;0.50;0.50;;;;;;;;;;5053644;28;20720;-62
2022/01/12 14:12:07;;;;;;;0.60;0.60;;;;;;;;;;5053731;28;20173;-62
2022/01/12 14:14:44;;;;;;;0.40;0.40;;;;;;;;;;5053591;28;20182;-62
2022/01/12 14:17:20;;;;;;;0.50;0.50;;;;;;;;;;5053495;28;20169;-62
2022/01/12 14:19:56;;;;;;;0.50;0.50;;;;;;;;;;5053069;28;20398;-62
2022/01/12 14:22:23;;;;;;;0.50;0.50;;;;;;;;;;5053214;28;20205;-62
2022/01/12 14:25:03;;;;;;;0.50;0.50;;;;;;;;;;5035351;28;20664;-62
2022/01/12 14:27:39;;;;;;;0.60;0.60;;;;;;;;;;5053208;28;20175;-62
2022/01/12 14:30:07;;;;;;;0.50;0.50;;;;;;;;;;5053077;28;20206;-62
2022/01/12 14:32:36;;;;;;;0.50;0.50;;;;;;;;;;5052758;28;20194;-62
2022/01/12 14:35:02;;;;;;;0.50;0.50;;;;;;;;;;5052810;28;20164;-62
2022/01/12 14:37:28;;;;;;;0.50;0.50;;;;;;;;;;5035172;28;20181;-62
2022/01/12 14:39:54;;;;;;;0.50;0.50;;;;;;;;;;5050561;28;20343;-62
2022/01/12 14:42:20;;;;;;;0.50;0.50;;;;;;;;;;5052659;28;20424;-62
2022/01/12 14:44:46;;;;;;;0.50;0.50;;;;;;;;;;5052586;28;20452;-62
2022/01/12 14:47:12;;;;;;;0.52;0.52;;;;;;;;;;5052934;28;20172;-62
2022/01/12 14:49:38;;;;;;;0.60;0.60;;;;;;;;;;5053820;28;20279;-62
2022/01/12 14:52:04;;;;;;;0.50;0.50;;;;;;;;;;5053417;28;20398;-62
2022/01/12 14:54:30;;;;;;;0.50;0.50;;;;;;;;;;5052519;28;20419;-62
2022/01/12 14:56:56;;;;;;;0.50;0.50;;;;;;;;;;5052908;28;20255;-62
2022/01/12 14:59:22;;;;;;;0.50;0.50;;;;;;;;;;5052464;28;20420;-62
2022/01/12 15:01:48;;;;;;;0.50;0.50;;;;;;;;;;5052126;28;20475;-62
2022/01/12 15:04:14;;;;;;;0.52;0.52;;;;;;;;;;5051997;28;20495;-62
2022/01/12 15:06:40;;;;;;;0.50;0.50;;;;;;;;;;5053402;28;20691;-61
2022/01/12 15:09:06;;;;;;;0.50;0.50;;;;;;;;;;5055500;28;20801;-60
2022/01/12 15:11:38;;;;;;;0.50;0.50;;;;;;;;;;5052467;28;20905;-61
2022/01/12 15:14:22;;;;;;;0.60;0.60;;;;;;;;;;5051877;28;20247;-61
2022/01/12 15:16:47;;;;;;;0.60;0.60;;;;;;;;;;5052713;28;20225;-62
2022/01/12 15:19:13;;;;;;;0.60;0.60;;;;;;;;;;5052143;28;20231;-60
2022/01/12 15:21:41;;;;;;;0.60;0.60;;;;;;;;;;5052206;28;20254;-60
2022/01/12 15:24:07;;;;;;;0.60;0.60;;;;;;;;;;5051217;28;20464;-63
2022/01/12 15:26:33;;;;;;;0.50;0.50;;;;;;;;;;5051339;28;20203;-62
2022/01/12 15:28:59;;;;;;;0.60;0.60;;;;;;;;;;5052197;28;20823;-62
2022/01/12 15:31:25;;;;;;;0.60;0.60;;;;;;;;;;5052154;28;20418;-61
2022/01/12 15:33:51;;;;;;;0.60;0.60;;;;;;;;;;5034122;28;20505;-64
2022/01/12 15:36:17;;;;;;;0.60;0.60;;;;;;;;;;5051670;28;20930;-61
2022/01/12 15:38:43;;;;;;;0.50;0.50;;;;;;;;;;5052125;28;20464;-61
2022/01/12 15:41:09;;;;;;;0.50;0.50;;;;;;;;;;5034066;28;20785;-63
2022/01/12 15:43:35;;;;;;;0.60;0.60;;;;;;;;;;5051589;28;21118;-63
2022/01/12 15:46:01;;;;;;;0.57;0.57;;;;;;;;;;5051151;28;20454;-63
2022/01/12 15:48:27;;;;;;;0.60;0.60;;;;;;;;;;5051443;28;20419;-63
2022/01/12 15:50:53;;;;;;;0.60;0.60;;;;;;;;;;5051871;28;20192;-63
2022/01/12 15:53:19;;;;;;;0.60;0.60;;;;;;;;;;5051566;28;20493;-63
2022/01/12 15:55:45;;;;;;;0.60;0.60;;;;;;;;;;5051592;28;20815;-63
2022/01/12 15:58:11;;;;;;;0.60;0.60;;;;;;;;;;5051163;28;20267;-63
2022/01/12 16:00:38;;;;;;;0.60;0.60;;;;;;;;;;5051604;28;20433;-63
2022/01/12 16:03:06;;;;;;;0.52;0.52;;;;;;;;;;5051517;28;20172;-63
2022/01/12 16:05:32;;;;;;;0.60;0.60;;;;;;;;;;5051538;28;20204;-63
2022/01/12 16:07:59;;;;;;;0.60;0.60;;;;;;;;;;5051385;28;20259;-63
2022/01/12 16:10:27;;;;;;;0.60;0.60;;;;;;;;;;5050472;28;20192;-63
2022/01/12 16:12:53;;;;;;;0.50;0.50;;;;;;;;;;5051654;28;20176;-63
2022/01/12 16:15:19;;;;;;;0.57;0.57;;;;;;;;;;5033575;28;20183;-63
2022/01/12 16:17:46;;;;;;;0.60;0.60;;;;;;;;;;5051662;28;20433;-63